createdAt,value
2019-04-20T00:00:50.751Z,58.00
2019-04-20T00:03:15.844Z,57.60
2019-04-20T00:05:43.508Z,58.30
2019-04-20T00:08:16.791Z,57.90
2019-04-20T00:10:48.127Z,58.50
2019-04-20T00:13:21.650Z,61.40
2019-04-20T00:15:39.135Z,60.20
2019-04-20T00:18:08.445Z,59.70
2019-04-20T00:20:39.049Z,59.20
2019-04-20T00:23:22.956Z,58.90
2019-04-20T00:26:26.796Z,60.30
2019-04-20T00:29:03.859Z,59.50
2019-04-20T00:31:30.668Z,59.50
2019-04-20T00:33:56.089Z,58.30
2019-04-20T00:36:13.863Z,59.40
2019-04-20T00:38:48.364Z,59.70
2019-04-20T00:41:13.713Z,60.80
2019-04-20T00:43:42.061Z,60.60
2019-04-20T00:46:18.359Z,59.80
2019-04-20T00:48:48.525Z,59.60
2019-04-20T00:51:32.720Z,59.40
2019-04-20T00:53:42.349Z,59.20
2019-04-20T00:56:07.550Z,58.90
2019-04-20T00:58:50.736Z,59.80
2019-04-20T01:01:24.917Z,59.70
2019-04-20T01:03:47.311Z,59.30
2019-04-20T01:06:43.796Z,59.40
2019-04-20T01:09:05.608Z,60.10
2019-04-20T01:11:38.414Z,59.20
2019-04-20T01:14:07.201Z,59.50
2019-04-20T01:16:38.674Z,60.60
2019-04-20T01:19:01.178Z,59.30
2019-04-20T01:21:31.514Z,59.50
2019-04-20T01:24:01.531Z,59.30
2019-04-20T01:26:27.690Z,58.70
2019-04-20T01:29:08.726Z,58.60
2019-04-20T01:31:32.006Z,58.90
2019-04-20T01:34:03.155Z,58.80
2019-04-20T01:36:42.970Z,59.00
2019-04-20T01:39:05.523Z,60.30
2019-04-20T01:41:22.412Z,59.10
2019-04-20T01:43:50.175Z,59.20
2019-04-20T01:46:22.230Z,59.10
2019-04-20T01:48:48.092Z,58.80
2019-04-20T01:51:21.315Z,59.30
2019-04-20T01:54:06.701Z,59.00
2019-04-20T01:56:31.186Z,58.80
2019-04-20T01:59:24.088Z,59.10
2019-04-20T02:02:05.130Z,58.80
2019-04-20T02:04:40.961Z,58.80
2019-04-20T02:07:06.884Z,58.40
2019-04-20T02:09:43.270Z,58.90
2019-04-20T02:12:10.777Z,58.70
2019-04-20T02:14:41.214Z,58.70
2019-04-20T02:17:14.889Z,58.90
2019-04-20T02:19:52.652Z,58.80
2019-04-20T02:22:13.610Z,58.70
2019-04-20T02:24:31.993Z,58.90
2019-04-20T02:26:59.850Z,58.70
2019-04-20T02:30:06.358Z,59.10
2019-04-20T02:32:40.258Z,59.10
2019-04-20T02:37:58.493Z,59.20
2019-04-20T02:45:17.408Z,59.10
2019-04-20T02:50:15.519Z,59.10
2019-04-20T02:55:10.884Z,59.20
2019-04-20T02:57:44.213Z,59.60
2019-04-20T03:02:21.917Z,60.00
2019-04-20T03:04:43.437Z,60.00
2019-04-20T03:07:14.896Z,59.80
2019-04-20T03:09:54.192Z,60.00
2019-04-20T03:12:28.858Z,59.40
2019-04-20T03:14:50.161Z,59.60
2019-04-20T03:17:29.748Z,59.60
2019-04-20T03:19:44.601Z,59.70
2019-04-20T03:22:23.614Z,60.40
2019-04-20T03:24:54.434Z,60.30
2019-04-20T03:27:32.949Z,60.10
2019-04-20T03:30:40.687Z,60.00
2019-04-20T03:33:06.973Z,59.90
2019-04-20T03:35:18.251Z,60.40
2019-04-20T03:37:48.703Z,60.40
2019-04-20T03:40:10.400Z,60.30
2019-04-20T03:42:22.300Z,60.10
2019-04-20T03:44:57.936Z,60.80
2019-04-20T03:47:30.350Z,60.30
2019-04-20T03:50:14.685Z,60.70
2019-04-20T03:53:03.928Z,60.80
2019-04-20T03:55:47.174Z,60.50
2019-04-20T03:58:30.587Z,60.70
2019-04-20T04:01:47.706Z,60.60
2019-04-20T04:04:12.184Z,61.00
2019-04-20T04:06:32.811Z,60.70
2019-04-20T04:09:02.792Z,62.10
2019-04-20T04:11:34.803Z,61.40
2019-04-20T04:13:48.316Z,61.40
2019-04-20T04:16:18.843Z,61.20
2019-04-20T04:18:49.709Z,62.00
2019-04-20T04:21:23.162Z,61.80
2019-04-20T04:23:58.915Z,62.10
2019-04-20T04:26:32.275Z,61.80
2019-04-20T04:29:00.656Z,61.80
2019-04-20T04:31:33.792Z,62.30
2019-04-20T04:33:59.326Z,61.80
2019-04-20T04:36:27.556Z,61.90
2019-04-20T04:39:03.910Z,62.00
2019-04-20T04:41:26.594Z,62.20
2019-04-20T04:43:55.921Z,62.20
2019-04-20T04:46:07.905Z,62.20
2019-04-20T04:48:40.663Z,62.20
2019-04-20T04:51:11.953Z,62.50
2019-04-20T04:53:46.737Z,62.60
2019-04-20T04:56:10.727Z,62.60
2019-04-20T04:58:33.929Z,62.40
2019-04-20T05:01:05.554Z,62.60
2019-04-20T05:03:58.245Z,62.50
2019-04-20T05:06:25.333Z,62.30
2019-04-20T05:08:43.045Z,62.80
2019-04-20T05:11:06.801Z,62.70
2019-04-20T05:13:42.888Z,62.50
2019-04-20T05:16:19.205Z,62.00
2019-04-20T05:18:57.896Z,62.10
2019-04-20T05:21:32.668Z,61.70
2019-04-20T05:24:20.716Z,61.70
2019-04-20T05:27:03.055Z,62.20
2019-04-20T05:29:14.462Z,61.30
2019-04-20T05:31:43.483Z,62.00
2019-04-20T05:34:25.471Z,61.20
2019-04-20T05:36:49.407Z,61.10
2019-04-20T05:39:26.836Z,60.60
2019-04-20T05:41:51.408Z,60.60
2019-04-20T05:44:22.179Z,60.40
2019-04-20T05:47:02.569Z,60.40
2019-04-20T05:49:25.787Z,60.30
2019-04-20T05:51:56.215Z,60.10
2019-04-20T05:54:26.813Z,60.00
2019-04-20T05:56:56.361Z,60.10
2019-04-20T05:59:22.641Z,59.90
2019-04-20T06:01:58.811Z,60.00
2019-04-20T06:04:41.287Z,59.90
2019-04-20T06:06:55.429Z,59.50
2019-04-20T06:09:22.809Z,59.60
2019-04-20T06:12:02.699Z,59.30
2019-04-20T06:14:40.035Z,59.00
2019-04-20T06:17:20.949Z,59.80
2019-04-20T06:19:44.061Z,58.70
2019-04-20T06:22:27.110Z,58.80
2019-04-20T06:25:18.530Z,58.30
2019-04-20T06:27:35.294Z,58.40
2019-04-20T06:29:55.807Z,57.40
2019-04-20T06:33:18.945Z,57.30
2019-04-20T06:35:51.687Z,57.60
2019-04-20T06:38:32.090Z,57.40
2019-04-20T06:43:09.057Z,57.30
2019-04-20T06:45:49.581Z,57.50
2019-04-20T06:48:12.253Z,57.50
2019-04-20T06:50:30.315Z,57.30
2019-04-20T06:53:31.061Z,56.30
2019-04-20T06:55:57.695Z,56.10
2019-04-20T06:58:34.691Z,56.20
2019-04-20T07:00:46.462Z,56.70
2019-04-20T07:03:34.618Z,56.60
2019-04-20T07:05:44.756Z,56.20
2019-04-20T07:08:34.601Z,55.70
2019-04-20T07:10:51.741Z,55.60
2019-04-20T07:13:07.218Z,55.10
2019-04-20T07:15:49.729Z,55.20
2019-04-20T07:18:31.251Z,55.00
2019-04-20T07:21:03.624Z,54.80
2019-04-20T07:23:37.091Z,54.70
2019-04-20T07:26:05.183Z,54.00
2019-04-20T07:28:32.755Z,53.70
2019-04-20T07:31:01.971Z,53.70
2019-04-20T07:33:35.548Z,53.80
2019-04-20T07:35:57.683Z,52.90
2019-04-20T07:40:56.286Z,52.70
2019-04-20T07:43:25.577Z,52.80
2019-04-20T07:45:55.925Z,52.70
2019-04-20T07:48:23.519Z,52.50
2019-04-20T07:50:46.194Z,52.30
2019-04-20T07:53:22.848Z,51.70
2019-04-20T07:55:54.047Z,51.50
2019-04-20T07:58:11.788Z,50.60
2019-04-20T08:05:54.180Z,50.70
2019-04-20T08:08:40.303Z,50.40
2019-04-20T08:10:54.384Z,50.40
2019-04-20T08:13:40.330Z,50.20
2019-04-20T08:16:04.031Z,49.90
2019-04-20T08:18:32.322Z,49.50
2019-04-20T08:20:58.106Z,49.50
2019-04-20T08:23:40.351Z,49.10
2019-04-20T08:25:47.374Z,48.40
2019-04-20T08:28:22.648Z,48.80
2019-04-20T08:31:17.820Z,48.70
2019-04-20T08:34:04.881Z,49.10
2019-04-20T08:36:23.155Z,47.10
2019-04-20T08:41:18.153Z,48.00
2019-04-20T08:43:58.985Z,47.70
2019-04-20T08:46:20.615Z,47.40
2019-04-20T08:48:50.846Z,46.60
2019-04-20T08:51:23.760Z,46.70
2019-04-20T08:53:51.843Z,46.00
2019-04-20T08:56:10.956Z,46.90
2019-04-20T08:58:29.585Z,46.50
2019-04-20T09:01:01.295Z,45.20
2019-04-20T09:03:32.580Z,45.10
2019-04-20T09:06:04.714Z,44.70
2019-04-20T09:08:32.617Z,45.30
2019-04-20T09:11:12.772Z,46.10
2019-04-20T09:13:32.034Z,45.30
2019-04-20T09:15:53.711Z,44.60
2019-04-20T09:18:35.317Z,43.90
2019-04-20T09:21:03.403Z,44.40
2019-04-20T09:23:40.868Z,43.90
2019-04-20T09:26:14.970Z,43.30
2019-04-20T09:28:39.615Z,41.60
2019-04-20T09:31:29.668Z,41.80
2019-04-20T09:34:23.284Z,42.10
2019-04-20T09:36:49.327Z,41.00
2019-04-20T09:39:38.712Z,41.80
2019-04-20T09:42:18.823Z,41.20
2019-04-20T09:44:50.896Z,40.00
2019-04-20T09:47:25.856Z,38.90
2019-04-20T09:49:55.056Z,40.00
2019-04-20T09:52:28.968Z,39.30
2019-04-20T09:54:58.926Z,39.30
2019-04-20T09:57:29.593Z,38.50
2019-04-20T09:59:57.534Z,37.60
2019-04-20T10:02:19.906Z,36.40
2019-04-20T10:04:40.192Z,36.70
2019-04-20T10:07:12.765Z,35.80
2019-04-20T10:09:39.878Z,35.00
2019-04-20T10:12:07.804Z,34.40
2019-04-20T10:14:35.695Z,35.30
2019-04-20T10:17:03.200Z,35.50
2019-04-20T10:19:33.988Z,35.30
2019-04-20T10:22:00.392Z,33.10
2019-04-20T10:24:28.538Z,34.50
2019-04-20T10:26:56.590Z,34.70
2019-04-20T10:29:24.056Z,35.50
2019-04-20T10:31:55.731Z,34.60
2019-04-20T10:34:23.685Z,34.70
2019-04-20T10:37:09.440Z,35.10
2019-04-20T10:39:40.556Z,35.00
2019-04-20T10:42:09.993Z,35.00
2019-04-20T10:44:38.679Z,34.70
2019-04-20T10:47:07.284Z,35.30
2019-04-20T10:49:35.354Z,34.20
2019-04-20T10:52:02.867Z,35.00
2019-04-20T10:54:30.474Z,35.70
2019-04-20T10:56:57.892Z,34.30
2019-04-20T10:59:25.757Z,35.00
2019-04-20T11:01:53.875Z,33.00
2019-04-20T11:04:21.311Z,29.00
2019-04-20T11:06:50.236Z,31.30
2019-04-20T11:09:18.508Z,31.10
2019-04-20T11:11:46.185Z,32.90
2019-04-20T11:14:22.839Z,31.60
2019-04-20T11:16:44.515Z,30.80
2019-04-20T11:19:12.019Z,31.00
2019-04-20T11:21:40.832Z,31.40
2019-04-20T11:24:08.347Z,31.80
2019-04-20T11:26:38.054Z,32.40
2019-04-20T11:29:06.416Z,32.20
2019-04-20T11:31:40.870Z,32.40
2019-04-20T11:34:03.915Z,31.70
2019-04-20T11:36:32.880Z,30.80
2019-04-20T11:39:00.758Z,31.10
2019-04-20T11:41:30.859Z,30.30
2019-04-20T11:43:59.770Z,30.80
2019-04-20T11:46:27.248Z,30.80
2019-04-20T11:48:55.286Z,30.40
2019-04-20T11:51:23.401Z,29.60
2019-04-20T11:53:52.154Z,29.70
2019-04-20T11:56:25.753Z,31.30
2019-04-20T11:58:49.201Z,29.80
2019-04-20T12:01:49.228Z,29.30
2019-04-20T12:04:25.172Z,29.90
2019-04-20T12:06:39.226Z,30.40
2019-04-20T12:09:08.996Z,29.10
2019-04-20T12:11:47.523Z,30.20
2019-04-20T12:14:07.013Z,29.50
2019-04-20T12:16:35.252Z,29.10
2019-04-20T12:19:04.111Z,30.50
2019-04-20T12:21:32.753Z,28.90
2019-04-20T12:24:00.412Z,28.60
2019-04-20T12:26:29.043Z,27.80
2019-04-20T12:28:57.890Z,28.20
2019-04-20T12:31:27.564Z,28.60
2019-04-20T12:33:54.809Z,28.50
2019-04-20T12:36:23.864Z,27.80
2019-04-20T12:38:51.306Z,27.70
2019-04-20T12:41:31.090Z,26.80
2019-04-20T12:43:49.721Z,27.20
2019-04-20T12:46:19.815Z,26.90
2019-04-20T12:48:47.448Z,27.10
2019-04-20T12:51:15.606Z,27.50
2019-04-20T12:53:44.292Z,26.70
2019-04-20T12:56:12.752Z,27.80
2019-04-20T12:58:43.277Z,27.80
2019-04-20T13:01:10.157Z,26.40
2019-04-20T13:03:37.648Z,25.80
2019-04-20T13:06:05.865Z,26.80
2019-04-20T13:08:36.935Z,27.70
2019-04-20T13:11:09.135Z,26.90
2019-04-20T13:13:42.321Z,26.80
2019-04-20T13:16:14.316Z,27.00
2019-04-20T13:18:47.661Z,27.00
2019-04-20T13:21:16.686Z,26.00
2019-04-20T13:23:44.900Z,25.90
2019-04-20T13:26:13.918Z,26.00
2019-04-20T13:28:41.618Z,25.20
2019-04-20T13:31:09.019Z,26.70
2019-04-20T13:33:36.893Z,25.30
2019-04-20T13:36:06.480Z,26.10
2019-04-20T13:38:34.263Z,25.70
2019-04-20T13:41:02.030Z,26.50
2019-04-20T13:43:29.968Z,25.50
2019-04-20T13:45:57.482Z,25.50
2019-04-20T13:48:24.890Z,25.10
2019-04-20T13:50:52.321Z,25.90
2019-04-20T13:53:19.709Z,25.60
2019-04-20T13:55:49.556Z,25.10
2019-04-20T13:58:35.938Z,25.10
2019-04-20T14:01:26.447Z,25.40
2019-04-20T14:04:06.676Z,25.70
2019-04-20T14:06:35.166Z,25.50
2019-04-20T14:09:05.523Z,26.10
2019-04-20T14:11:33.554Z,25.40
2019-04-20T14:14:04.568Z,25.20
2019-04-20T14:16:31.455Z,24.90
2019-04-20T14:18:58.928Z,24.80
2019-04-20T14:21:26.320Z,22.80
2019-04-20T14:23:54.875Z,23.50
2019-04-20T14:26:23.027Z,23.00
2019-04-20T14:28:51.284Z,22.60
2019-04-20T14:31:19.591Z,23.40
2019-04-20T14:33:47.107Z,22.10
2019-04-20T14:36:14.916Z,22.40
2019-04-20T14:38:45.348Z,23.30
2019-04-20T14:41:12.607Z,21.60
2019-04-20T14:43:40.014Z,21.30
2019-04-20T14:46:08.559Z,21.60
2019-04-20T14:48:36.615Z,20.40
2019-04-20T14:51:04.047Z,20.20
2019-04-20T14:53:31.597Z,21.00
2019-04-20T14:55:59.730Z,20.80
2019-04-20T14:58:56.052Z,20.60
2019-04-20T15:01:34.589Z,20.80
2019-04-20T15:04:06.819Z,20.70
2019-04-20T15:06:34.493Z,19.90
2019-04-20T15:09:00.897Z,20.50
2019-04-20T15:11:28.418Z,20.80
2019-04-20T15:13:56.531Z,20.40
2019-04-20T15:16:24.593Z,20.60
2019-04-20T15:19:11.688Z,20.40
2019-04-20T15:21:41.780Z,20.00
2019-04-20T15:24:09.413Z,19.80
2019-04-20T15:26:38.366Z,20.00
2019-04-20T15:29:06.402Z,20.10
2019-04-20T15:31:34.347Z,20.10
2019-04-20T15:34:03.300Z,20.00
2019-04-20T15:36:31.872Z,20.10
2019-04-20T15:38:59.323Z,19.40
2019-04-20T15:41:27.450Z,20.00
2019-04-20T15:43:55.308Z,19.80
2019-04-20T15:46:23.475Z,19.60
2019-04-20T15:48:52.373Z,20.00
2019-04-20T15:51:20.053Z,19.60
2019-04-20T15:53:47.502Z,19.50
2019-04-20T15:56:16.473Z,19.20
2019-04-20T15:58:44.289Z,19.40
2019-04-20T16:01:12.248Z,19.00
2019-04-20T16:03:53.264Z,19.10
2019-04-20T16:06:21.281Z,18.60
2019-04-20T16:08:52.260Z,18.90
2019-04-20T16:11:21.422Z,18.70
2019-04-20T16:13:53.585Z,18.60
2019-04-20T16:16:19.629Z,18.70
2019-04-20T16:18:48.462Z,18.50
2019-04-20T16:21:21.928Z,18.70
2019-04-20T16:23:50.692Z,18.60
2019-04-20T16:26:37.942Z,19.00
2019-04-20T16:29:06.007Z,19.30
2019-04-20T16:31:33.644Z,20.60
2019-04-20T16:34:01.194Z,21.90
2019-04-20T16:36:30.257Z,23.20
2019-04-20T16:38:59.423Z,24.00
2019-04-20T16:41:28.334Z,24.50
2019-04-20T16:43:57.391Z,25.40
2019-04-20T16:46:25.827Z,25.90
2019-04-20T16:48:54.837Z,25.80
2019-04-20T16:51:22.916Z,26.50
2019-04-20T16:53:51.845Z,26.70
2019-04-20T16:56:21.071Z,27.60
2019-04-20T16:58:54.580Z,27.40
2019-04-20T17:01:17.860Z,28.00
2019-04-20T17:03:58.528Z,28.20
2019-04-20T17:06:15.885Z,28.10
2019-04-20T17:08:44.815Z,28.30
2019-04-20T17:11:13.644Z,28.90
2019-04-20T17:13:48.056Z,28.70
2019-04-20T17:16:11.585Z,28.80
2019-04-20T17:18:39.371Z,29.20
2019-04-20T17:21:14.652Z,29.40
2019-04-20T17:23:37.434Z,29.70
2019-04-20T17:26:08.210Z,30.00
2019-04-20T17:28:55.683Z,30.20
2019-04-20T17:31:40.341Z,30.30
2019-04-20T17:34:28.354Z,30.60
2019-04-20T17:36:40.460Z,30.40
2019-04-20T17:39:12.013Z,30.10
2019-04-20T17:41:54.639Z,30.60
2019-04-20T17:44:24.784Z,30.50
2019-04-20T17:46:49.165Z,31.00
2019-04-20T17:49:24.343Z,31.10
2019-04-20T17:52:02.469Z,31.40
2019-04-20T17:54:13.025Z,31.40
2019-04-20T17:56:42.511Z,31.20
2019-04-20T17:59:10.410Z,31.90
2019-04-20T18:02:19.050Z,31.90
2019-04-20T18:05:09.918Z,31.80
2019-04-20T18:07:39.489Z,32.10
2019-04-20T18:10:03.098Z,32.20
2019-04-20T18:12:15.524Z,32.50
2019-04-20T18:14:54.741Z,32.60
2019-04-20T18:17:32.676Z,33.90
2019-04-20T18:19:56.796Z,34.10
2019-04-20T18:22:25.526Z,34.50
2019-04-20T18:25:13.434Z,35.50
2019-04-20T18:27:41.177Z,35.10
2019-04-20T18:30:08.060Z,35.90
2019-04-20T18:32:27.459Z,37.10
2019-04-20T18:35:00.844Z,37.90
2019-04-20T18:37:28.363Z,37.80
2019-04-20T18:39:59.601Z,38.50
2019-04-20T18:42:32.383Z,39.00
2019-04-20T18:45:15.986Z,42.10
2019-04-20T18:47:45.252Z,39.30
2019-04-20T18:50:04.414Z,39.60
2019-04-20T18:52:22.299Z,39.60
2019-04-20T18:54:53.701Z,41.30
2019-04-20T18:57:23.220Z,40.90
2019-04-20T18:59:54.135Z,41.10
2019-04-20T19:02:24.912Z,41.60
2019-04-20T19:04:48.070Z,42.90
2019-04-20T19:07:15.561Z,42.40
2019-04-20T19:09:43.047Z,45.80
2019-04-20T19:12:13.211Z,43.30
2019-04-20T19:14:49.519Z,43.30
2019-04-20T19:17:48.214Z,43.30
2019-04-20T19:20:14.040Z,48.80
2019-04-20T19:22:41.983Z,45.70
2019-04-20T19:25:17.145Z,45.40
2019-04-20T19:27:46.281Z,45.30
2019-04-20T19:30:21.132Z,45.60
2019-04-20T19:32:58.463Z,45.80
2019-04-20T19:35:24.502Z,46.30
2019-04-20T19:37:50.301Z,46.30
2019-04-20T19:40:18.225Z,46.60
2019-04-20T19:42:47.844Z,46.50
2019-04-20T19:45:31.587Z,46.50
2019-04-20T19:47:51.255Z,48.20
2019-04-20T19:50:41.007Z,47.40
2019-04-20T19:53:05.747Z,49.00
2019-04-20T19:55:20.569Z,49.20
2019-04-20T19:57:50.434Z,52.50
2019-04-20T20:00:06.452Z,51.60
2019-04-20T20:02:36.465Z,51.10
2019-04-20T20:05:08.801Z,51.10
2019-04-20T20:07:40.181Z,50.30
2019-04-20T20:10:07.760Z,50.20
2019-04-20T20:12:35.640Z,51.10
2019-04-20T20:15:07.376Z,51.10
2019-04-20T20:17:53.984Z,51.60
2019-04-20T20:20:28.756Z,51.00
2019-04-20T20:22:39.566Z,51.40
2019-04-20T20:25:03.117Z,52.70
2019-04-20T20:27:40.328Z,52.90
2019-04-20T20:30:09.243Z,52.90
2019-04-20T20:32:47.931Z,53.60
2019-04-20T20:35:07.204Z,52.80
2019-04-20T20:37:35.894Z,52.60
2019-04-20T20:40:13.555Z,52.70
2019-04-20T20:42:40.290Z,54.30
2019-04-20T20:45:09.209Z,53.70
2019-04-20T20:47:48.463Z,54.60
2019-04-20T20:50:33.853Z,54.40
2019-04-20T20:52:36.881Z,55.70
2019-04-20T20:55:03.760Z,55.80
2019-04-20T20:57:37.183Z,54.50
2019-04-20T21:00:00.236Z,56.30
2019-04-20T21:02:38.040Z,56.30
2019-04-20T21:04:53.537Z,55.00
2019-04-20T21:07:22.488Z,56.00
2019-04-20T21:09:50.457Z,54.90
2019-04-20T21:12:19.843Z,56.20
2019-04-20T21:14:47.320Z,56.00
2019-04-20T21:17:18.376Z,57.10
2019-04-20T21:19:59.432Z,56.70
2019-04-20T21:22:22.697Z,56.40
2019-04-20T21:24:49.802Z,56.70
2019-04-20T21:27:19.797Z,57.20
2019-04-20T21:29:51.365Z,58.00
2019-04-20T21:32:17.951Z,58.40
2019-04-20T21:34:51.310Z,56.60
2019-04-20T21:37:18.598Z,58.90
2019-04-20T21:39:50.012Z,58.60
2019-04-20T21:42:16.465Z,61.70
2019-04-20T21:44:44.844Z,63.20
2019-04-20T21:47:10.486Z,59.60
2019-04-20T21:49:49.682Z,59.00
2019-04-20T21:52:19.343Z,59.20
2019-04-20T21:54:36.486Z,61.30
2019-04-20T21:57:07.875Z,67.40
2019-04-20T21:59:40.932Z,62.50
2019-04-20T22:02:12.870Z,60.90
2019-04-20T22:04:33.632Z,60.90
2019-04-20T22:07:02.448Z,61.00
2019-04-20T22:09:34.534Z,61.50
2019-04-20T22:12:00.184Z,61.60
2019-04-20T22:14:31.849Z,61.90
2019-04-20T22:17:00.051Z,61.90
2019-04-20T22:19:36.666Z,61.20
2019-04-20T22:22:06.495Z,61.60
2019-04-20T22:24:40.018Z,61.70
2019-04-20T22:27:04.895Z,60.80
2019-04-20T22:29:24.006Z,60.50
2019-04-20T22:31:57.194Z,62.30
2019-04-20T22:34:24.508Z,63.40
2019-04-20T22:36:50.539Z,63.00
2019-04-20T22:39:46.494Z,62.70
2019-04-20T22:42:12.925Z,61.70
2019-04-20T22:44:39.254Z,62.50
2019-04-20T22:47:14.107Z,62.00
2019-04-20T22:49:50.081Z,61.10
2019-04-20T22:52:24.069Z,62.30
2019-04-20T22:54:51.840Z,66.80
2019-04-20T22:57:18.718Z,66.20
2019-04-20T22:59:44.820Z,65.90
2019-04-20T23:02:05.664Z,65.10
2019-04-20T23:04:33.034Z,63.10
2019-04-20T23:07:00.943Z,63.40
2019-04-20T23:09:28.885Z,65.00
2019-04-20T23:12:06.933Z,65.80
2019-04-20T23:14:26.560Z,65.40
2019-04-20T23:16:57.047Z,66.80
2019-04-20T23:19:34.541Z,64.00
2019-04-20T23:21:59.079Z,67.60
2019-04-20T23:24:23.599Z,64.10
2019-04-20T23:26:51.150Z,63.70
2019-04-20T23:29:21.417Z,65.50
2019-04-20T23:31:55.102Z,63.90
2019-04-20T23:34:21.461Z,64.10
2019-04-20T23:36:50.188Z,64.80
2019-04-20T23:39:17.001Z,66.60
2019-04-20T23:41:53.597Z,65.90
2019-04-20T23:44:21.161Z,66.50
2019-04-20T23:47:06.823Z,66.20
2019-04-20T23:49:38.117Z,68.70
2019-04-20T23:52:26.488Z,67.10
2019-04-20T23:54:33.140Z,68.60
2019-04-20T23:56:59.689Z,72.80
2019-04-20T23:59:34.307Z,69.70
